createdAt,value
2018-10-17T00:02:18.090Z,14.39
2018-10-17T00:04:52.169Z,14.34
2018-10-17T00:07:25.679Z,14.25
2018-10-17T00:09:58.590Z,14.20
2018-10-17T00:12:32.226Z,14.22
2018-10-17T00:15:08.340Z,14.25
2018-10-17T00:17:41.215Z,14.33
2018-10-17T00:20:14.382Z,14.46
2018-10-17T00:22:47.522Z,14.55
2018-10-17T00:25:22.170Z,14.69
2018-10-17T00:27:54.830Z,14.76
2018-10-17T00:30:27.348Z,14.90
2018-10-17T00:33:00.570Z,15.08
2018-10-17T00:35:33.129Z,15.15
2018-10-17T00:38:06.040Z,15.24
2018-10-17T00:40:39.948Z,15.22
2018-10-17T00:43:12.773Z,15.12
2018-10-17T00:45:45.520Z,15.09
2018-10-17T00:48:20.255Z,15.10
2018-10-17T00:50:52.922Z,15.15
2018-10-17T00:53:25.615Z,15.27
2018-10-17T00:55:58.662Z,15.41
2018-10-17T00:58:32.502Z,15.51
2018-10-17T01:01:05.329Z,15.56
2018-10-17T01:03:38.270Z,15.57
2018-10-17T01:06:10.777Z,15.59
2018-10-17T01:08:43.557Z,15.56
2018-10-17T01:11:16.607Z,15.58
2018-10-17T01:13:49.222Z,15.59
2018-10-17T01:16:21.782Z,15.56
2018-10-17T01:18:54.741Z,15.55
2018-10-17T01:21:27.437Z,15.57
2018-10-17T01:24:00.089Z,15.63
2018-10-17T01:26:33.297Z,15.63
2018-10-17T01:29:06.114Z,15.58
2018-10-17T01:31:38.632Z,15.72
2018-10-17T01:34:12.913Z,15.80
2018-10-17T01:36:45.713Z,15.91
2018-10-17T01:39:18.466Z,15.99
2018-10-17T01:41:53.479Z,15.97
2018-10-17T01:44:26.448Z,15.91
2018-10-17T01:46:59.052Z,15.92
2018-10-17T01:49:34.096Z,16.00
2018-10-17T01:52:06.781Z,16.01
2018-10-17T01:54:39.463Z,15.93
2018-10-17T01:57:12.413Z,15.84
2018-10-17T01:59:44.996Z,15.72
2018-10-17T02:02:17.534Z,15.66
2018-10-17T02:04:50.575Z,15.56
2018-10-17T02:07:23.469Z,15.47
2018-10-17T02:09:56.148Z,15.33
2018-10-17T02:12:29.225Z,15.25
2018-10-17T02:15:03.262Z,15.19
2018-10-17T02:17:35.973Z,15.16
2018-10-17T02:20:10.521Z,15.12
2018-10-17T02:22:43.090Z,15.02
2018-10-17T02:25:15.858Z,14.82
2018-10-17T02:27:49.861Z,14.60
2018-10-17T02:30:25.169Z,14.44
2018-10-17T02:32:57.980Z,14.33
2018-10-17T02:35:30.948Z,14.23
2018-10-17T02:38:03.758Z,14.11
2018-10-17T02:40:36.522Z,13.99
2018-10-17T02:43:09.736Z,13.94
2018-10-17T02:45:42.231Z,13.88
2018-10-17T02:48:14.908Z,13.90
2018-10-17T02:50:49.537Z,13.95
2018-10-17T02:53:23.073Z,14.17
2018-10-17T02:55:55.821Z,14.06
2018-10-17T02:58:29.282Z,13.93
2018-10-17T03:01:03.595Z,13.71
2018-10-17T03:03:36.234Z,13.53
2018-10-17T03:06:09.174Z,13.32
2018-10-17T03:08:41.809Z,13.17
2018-10-17T03:11:15.452Z,13.11
2018-10-17T03:13:48.182Z,13.10
2018-10-17T03:16:20.723Z,13.09
2018-10-17T03:18:54.058Z,13.01
2018-10-17T03:21:27.161Z,12.91
2018-10-17T03:23:59.701Z,12.77
2018-10-17T03:26:32.530Z,12.67
2018-10-17T03:29:05.571Z,12.56
2018-10-17T03:31:38.010Z,12.43
2018-10-17T03:34:10.668Z,12.39
2018-10-17T03:36:43.589Z,12.36
2018-10-17T03:39:16.900Z,12.37
2018-10-17T03:41:51.072Z,12.37
2018-10-17T03:44:32.929Z,12.28
2018-10-17T03:47:06.671Z,12.17
2018-10-17T03:49:39.579Z,12.06
2018-10-17T03:52:12.089Z,11.97
2018-10-17T03:54:44.706Z,11.87
2018-10-17T03:57:17.628Z,11.79
2018-10-17T03:59:50.345Z,11.83
2018-10-17T04:02:22.918Z,11.76
2018-10-17T04:04:55.869Z,11.70
2018-10-17T04:07:28.500Z,11.68
2018-10-17T04:10:01.114Z,11.77
2018-10-17T04:12:34.044Z,11.69
2018-10-17T04:15:07.078Z,11.55
2018-10-17T04:17:39.746Z,11.42
2018-10-17T04:20:12.577Z,11.38
2018-10-17T04:22:53.763Z,11.40
2018-10-17T04:25:27.905Z,11.32
2018-10-17T04:28:01.278Z,11.31
2018-10-17T04:30:33.731Z,11.23
2018-10-17T04:33:06.549Z,11.19
2018-10-17T04:35:41.757Z,11.13
2018-10-17T04:38:14.943Z,11.05
2018-10-17T04:40:47.737Z,11.01
2018-10-17T04:43:21.783Z,11.02
2018-10-17T04:45:54.514Z,11.04
2018-10-17T04:48:27.475Z,11.08
2018-10-17T04:51:00.228Z,11.10
2018-10-17T04:53:33.196Z,11.08
2018-10-17T04:56:06.616Z,11.13
2018-10-17T04:58:39.205Z,11.09
2018-10-17T05:01:11.841Z,11.03
2018-10-17T05:03:48.580Z,11.01
2018-10-17T05:06:24.089Z,10.99
2018-10-17T05:08:56.922Z,11.02
2018-10-17T05:11:29.810Z,11.03
2018-10-17T05:14:02.649Z,11.01
2018-10-17T05:16:36.556Z,10.91
2018-10-17T05:19:09.558Z,10.82
2018-10-17T05:21:42.050Z,10.75
2018-10-17T05:24:18.518Z,10.73
2018-10-17T05:26:53.114Z,10.80
2018-10-17T05:29:25.726Z,10.91
2018-10-17T05:31:58.289Z,10.95
2018-10-17T05:34:31.617Z,10.94
2018-10-17T05:37:04.221Z,10.93
2018-10-17T05:39:36.758Z,10.90
2018-10-17T05:42:11.737Z,10.86
2018-10-17T05:44:44.281Z,10.90
2018-10-17T05:47:17.024Z,10.94
2018-10-17T05:49:50.073Z,11.00
2018-10-17T05:52:23.583Z,11.03
2018-10-17T05:54:56.745Z,10.98
2018-10-17T05:57:30.822Z,10.92
2018-10-17T06:00:07.075Z,10.96
2018-10-17T06:02:43.242Z,11.02
2018-10-17T06:05:17.296Z,11.09
2018-10-17T06:07:50.892Z,11.17
2018-10-17T06:10:25.055Z,11.18
2018-10-17T06:12:57.642Z,11.25
2018-10-17T06:15:31.410Z,11.22
2018-10-17T06:18:05.580Z,11.16
2018-10-17T06:20:38.309Z,11.08
2018-10-17T06:23:12.369Z,11.01
2018-10-17T06:25:45.851Z,11.00
2018-10-17T06:28:19.100Z,11.01
2018-10-17T06:30:52.897Z,11.01
2018-10-17T06:33:25.440Z,11.02
2018-10-17T06:35:59.642Z,11.02
2018-10-17T06:38:36.478Z,11.02
2018-10-17T06:41:11.381Z,11.06
2018-10-17T06:43:44.670Z,11.08
2018-10-17T06:46:21.282Z,11.15
2018-10-17T06:48:53.972Z,11.29
2018-10-17T06:51:28.359Z,11.36
2018-10-17T06:54:02.298Z,11.38
2018-10-17T06:56:35.636Z,11.39
2018-10-17T06:59:08.638Z,11.43
2018-10-17T07:01:44.212Z,11.48
2018-10-17T07:04:31.071Z,11.56
2018-10-17T07:07:09.608Z,11.61
2018-10-17T07:09:42.379Z,11.64
2018-10-17T07:12:15.976Z,11.76
2018-10-17T07:14:48.762Z,11.86
2018-10-17T07:17:30.578Z,11.96
2018-10-17T07:20:07.053Z,12.05
2018-10-17T07:22:40.702Z,12.09
2018-10-17T07:25:15.331Z,12.17
2018-10-17T07:27:48.051Z,12.33
2018-10-17T07:30:22.053Z,12.46
2018-10-17T07:32:55.342Z,12.64
2018-10-17T07:35:28.047Z,12.84
2018-10-17T07:38:00.748Z,12.97
2018-10-17T07:40:35.602Z,13.08
2018-10-17T07:43:09.769Z,13.20
2018-10-17T07:45:47.451Z,13.28
2018-10-17T07:48:20.399Z,13.31
2018-10-17T07:50:54.820Z,13.40
2018-10-17T07:53:27.992Z,13.52
2018-10-17T07:56:02.012Z,13.63
2018-10-17T07:58:34.998Z,13.76
2018-10-17T08:01:08.713Z,13.94
2018-10-17T08:03:42.454Z,14.09
2018-10-17T08:06:14.994Z,14.18
2018-10-17T08:08:48.821Z,14.30
2018-10-17T08:11:24.228Z,14.47
2018-10-17T08:14:00.357Z,14.70
2018-10-17T08:16:32.779Z,14.98
2018-10-17T08:19:06.697Z,15.22
2018-10-17T08:21:40.430Z,15.47
2018-10-17T08:24:13.393Z,15.74
2018-10-17T08:26:46.570Z,15.96
2018-10-17T08:29:19.589Z,16.16
2018-10-17T08:31:52.182Z,16.41
2018-10-17T08:34:26.889Z,16.67
2018-10-17T08:36:59.893Z,16.86
2018-10-17T08:39:43.795Z,17.11
2018-10-17T08:42:16.413Z,17.28
2018-10-17T08:44:52.785Z,17.41
2018-10-17T08:47:25.999Z,17.52
2018-10-17T08:50:01.714Z,17.65
2018-10-17T08:52:34.208Z,17.79
2018-10-17T08:55:07.112Z,17.95
2018-10-17T08:57:40.180Z,18.30
2018-10-17T09:00:16.426Z,18.88
2018-10-17T09:02:49.000Z,19.39
2018-10-17T09:05:25.064Z,19.77
2018-10-17T09:07:58.347Z,20.19
2018-10-17T09:10:31.275Z,20.48
2018-10-17T09:13:06.328Z,20.70
2018-10-17T09:15:42.845Z,20.88
2018-10-17T09:18:17.450Z,21.03
2018-10-17T09:20:54.102Z,21.15
2018-10-17T09:23:27.121Z,21.40
2018-10-17T09:26:03.670Z,21.45
2018-10-17T09:28:37.150Z,21.48
2018-10-17T09:31:10.724Z,21.45
2018-10-17T09:33:45.071Z,21.39
2018-10-17T09:36:18.318Z,21.39
2018-10-17T09:38:53.646Z,21.43
2018-10-17T09:41:28.155Z,21.56
2018-10-17T09:44:03.264Z,21.76
2018-10-17T09:46:37.028Z,22.01
2018-10-17T09:49:09.720Z,22.26
2018-10-17T09:51:44.268Z,22.20
2018-10-17T09:54:16.946Z,22.06
2018-10-17T09:56:50.332Z,21.97
2018-10-17T09:59:25.828Z,22.07
2018-10-17T10:01:59.500Z,22.11
2018-10-17T10:04:32.744Z,22.13
2018-10-17T10:07:09.719Z,22.07
2018-10-17T10:09:43.466Z,22.07
2018-10-17T10:12:16.212Z,22.21
2018-10-17T10:14:49.152Z,22.29
2018-10-17T10:17:22.094Z,22.22
2018-10-17T10:19:54.601Z,22.20
2018-10-17T10:22:48.541Z,22.30
2018-10-17T10:25:22.271Z,22.43
2018-10-17T10:28:03.292Z,22.59
2018-10-17T10:30:41.057Z,22.79
2018-10-17T10:33:16.673Z,22.93
2018-10-17T10:35:52.355Z,23.02
2018-10-17T10:38:26.823Z,23.25
2018-10-17T10:41:01.803Z,23.35
2018-10-17T10:43:36.658Z,23.50
2018-10-17T10:46:11.619Z,23.72
2018-10-17T10:48:46.609Z,24.07
2018-10-17T10:51:26.025Z,24.33
2018-10-17T10:54:01.313Z,24.17
2018-10-17T10:56:37.693Z,24.11
2018-10-17T10:59:16.531Z,24.24
2018-10-17T11:01:49.720Z,24.68
2018-10-17T11:04:26.148Z,24.57
2018-10-17T11:07:00.486Z,24.57
2018-10-17T11:09:34.839Z,24.76
2018-10-17T11:12:09.378Z,24.88
2018-10-17T11:14:44.831Z,24.96
2018-10-17T11:17:21.208Z,24.94
2018-10-17T11:19:57.760Z,24.78
2018-10-17T11:22:32.834Z,24.91
2018-10-17T11:25:10.053Z,24.88
2018-10-17T11:27:44.798Z,24.95
2018-10-17T11:30:18.225Z,25.29
2018-10-17T11:32:53.785Z,25.40
2018-10-17T11:35:28.727Z,25.28
2018-10-17T11:38:03.265Z,24.85
2018-10-17T11:40:37.872Z,24.62
2018-10-17T11:43:11.626Z,24.49
2018-10-17T11:45:45.701Z,24.68
2018-10-17T11:48:21.025Z,24.83
2018-10-17T11:50:58.963Z,24.97
2018-10-17T11:53:33.006Z,25.31
2018-10-17T11:56:09.150Z,25.44
2018-10-17T11:58:42.680Z,25.45
2018-10-17T12:01:16.757Z,25.14
2018-10-17T12:03:52.608Z,24.78
2018-10-17T12:06:25.345Z,24.71
2018-10-17T12:08:57.902Z,24.76
2018-10-17T12:11:32.655Z,24.81
2018-10-17T12:14:05.645Z,24.71
2018-10-17T12:16:38.446Z,24.60
2018-10-17T12:19:12.315Z,24.85
2018-10-17T12:21:47.226Z,25.08
2018-10-17T12:24:20.571Z,25.41
2018-10-17T12:26:55.387Z,25.53
2018-10-17T12:29:27.949Z,25.59
2018-10-17T12:32:01.037Z,26.03
2018-10-17T12:34:36.279Z,26.09
2018-10-17T12:37:09.090Z,25.96
2018-10-17T12:39:43.896Z,25.84
2018-10-17T12:42:18.160Z,25.64
2018-10-17T12:44:51.271Z,25.26
2018-10-17T12:47:26.509Z,24.96
2018-10-17T12:50:05.803Z,24.82
2018-10-17T12:52:40.338Z,24.88
2018-10-17T12:55:13.743Z,24.79
2018-10-17T12:57:50.163Z,24.74
2018-10-17T13:00:23.403Z,24.61
2018-10-17T13:02:57.209Z,24.34
2018-10-17T13:05:29.819Z,24.15
2018-10-17T13:08:08.885Z,24.18
2018-10-17T13:10:44.485Z,24.34
2018-10-17T13:13:18.222Z,24.39
2018-10-17T13:15:53.063Z,24.34
2018-10-17T13:18:27.326Z,24.33
2018-10-17T13:21:01.108Z,24.29
2018-10-17T13:23:34.369Z,24.27
2018-10-17T13:26:07.293Z,24.27
2018-10-17T13:28:47.654Z,24.38
2018-10-17T13:31:20.411Z,24.47
2018-10-17T13:33:54.209Z,24.65
2018-10-17T13:36:28.043Z,24.77
2018-10-17T13:39:00.845Z,24.77
2018-10-17T13:41:33.594Z,24.86
2018-10-17T13:44:11.816Z,25.01
2018-10-17T13:46:47.273Z,25.15
2018-10-17T13:49:21.916Z,25.00
2018-10-17T13:51:56.593Z,24.78
2018-10-17T13:54:29.586Z,24.75
2018-10-17T13:57:03.224Z,24.97
2018-10-17T13:59:36.223Z,25.29
2018-10-17T14:02:10.023Z,25.57
2018-10-17T14:04:44.322Z,25.66
2018-10-17T14:07:19.985Z,25.55
2018-10-17T14:09:57.195Z,25.36
2018-10-17T14:12:34.683Z,25.21
2018-10-17T14:15:15.367Z,25.10
2018-10-17T14:17:50.869Z,25.00
2018-10-17T14:20:25.661Z,24.87
2018-10-17T14:22:59.381Z,24.69
2018-10-17T14:25:32.232Z,24.55
2018-10-17T14:28:06.411Z,24.41
2018-10-17T14:30:39.017Z,24.20
2018-10-17T14:33:13.633Z,24.12
2018-10-17T14:35:48.813Z,24.03
2018-10-17T14:38:23.197Z,23.95
2018-10-17T14:41:00.000Z,23.89
2018-10-17T14:43:34.098Z,23.87
2018-10-17T14:46:07.112Z,23.91
2018-10-17T14:48:40.674Z,23.95
2018-10-17T14:51:17.129Z,23.90
2018-10-17T14:53:51.119Z,23.74
2018-10-17T14:56:25.350Z,23.65
2018-10-17T14:58:58.326Z,23.51
2018-10-17T15:01:35.661Z,23.34
2018-10-17T15:04:13.799Z,23.22
2018-10-17T15:06:48.719Z,23.22
2018-10-17T15:09:36.588Z,23.29
2018-10-17T15:12:11.607Z,23.38
2018-10-17T15:14:44.612Z,23.43
2018-10-17T15:17:19.086Z,23.46
2018-10-17T15:19:53.651Z,23.47
2018-10-17T15:22:26.353Z,23.41
2018-10-17T15:25:02.985Z,23.28
2018-10-17T15:27:38.414Z,23.16
2018-10-17T15:30:15.519Z,23.09
2018-10-17T15:32:50.369Z,23.01
2018-10-17T15:35:22.885Z,22.94
2018-10-17T15:37:56.453Z,22.83
2018-10-17T15:40:31.692Z,22.68
2018-10-17T15:43:07.780Z,22.57
2018-10-17T15:46:20.744Z,22.55
2018-10-17T15:49:06.205Z,22.56
2018-10-17T15:51:40.278Z,22.52
2018-10-17T15:54:15.178Z,22.38
2018-10-17T15:56:52.141Z,22.23
2018-10-17T15:59:29.517Z,22.07
2018-10-17T16:02:04.523Z,21.93
2018-10-17T16:04:40.052Z,21.77
2018-10-17T16:07:13.522Z,21.59
2018-10-17T16:09:47.554Z,21.40
2018-10-17T16:12:21.940Z,21.22
2018-10-17T16:14:58.741Z,21.04
2018-10-17T16:17:31.868Z,20.84
2018-10-17T16:20:07.701Z,20.64
2018-10-17T16:22:41.290Z,20.45
2018-10-17T16:25:14.421Z,20.28
2018-10-17T16:27:48.892Z,20.10
2018-10-17T16:32:55.092Z,19.73
2018-10-17T16:35:27.674Z,19.55
2018-10-17T16:38:01.800Z,19.37
2018-10-17T16:40:36.602Z,19.19
2018-10-17T16:43:18.481Z,19.05
2018-10-17T16:45:52.199Z,18.91
2018-10-17T16:48:27.571Z,18.77
2018-10-17T16:51:01.341Z,18.60
2018-10-17T16:53:35.911Z,18.47
2018-10-17T16:56:09.408Z,18.33
2018-10-17T16:58:43.891Z,18.18
2018-10-17T17:01:16.935Z,18.01
2018-10-17T17:03:51.440Z,17.87
2018-10-17T17:06:26.450Z,17.79
2018-10-17T17:08:59.880Z,17.71
2018-10-17T17:11:32.626Z,17.58
2018-10-17T17:14:06.306Z,17.39
2018-10-17T17:16:42.053Z,17.19
2018-10-17T17:19:24.731Z,17.00
2018-10-17T17:22:00.808Z,16.83
2018-10-17T17:24:34.995Z,16.70
2018-10-17T17:27:09.852Z,16.61
2018-10-17T17:29:42.600Z,16.61
2018-10-17T17:32:18.304Z,16.48
2018-10-17T17:34:52.489Z,16.38
2018-10-17T17:37:27.793Z,16.28
2018-10-17T17:40:05.546Z,16.08
2018-10-17T17:42:38.356Z,15.86
2018-10-17T17:45:13.038Z,15.68
2018-10-17T17:47:52.537Z,15.55
2018-10-17T17:50:26.773Z,15.46
2018-10-17T17:53:00.068Z,15.39
2018-10-17T17:55:33.129Z,15.27
2018-10-17T17:58:08.646Z,15.17
2018-10-17T18:00:41.197Z,15.10
2018-10-17T18:03:16.270Z,15.00
2018-10-17T18:05:48.807Z,14.93
2018-10-17T18:08:25.509Z,14.91
2018-10-17T18:11:18.693Z,14.90
2018-10-17T18:13:55.573Z,14.88
2018-10-17T18:16:29.568Z,14.92
2018-10-17T18:19:04.588Z,14.92
2018-10-17T18:21:38.302Z,14.92
2018-10-17T18:24:12.973Z,14.95
2018-10-17T18:26:45.665Z,15.02
2018-10-17T18:29:18.602Z,15.03
2018-10-17T18:31:53.150Z,15.10
2018-10-17T18:34:26.530Z,15.24
2018-10-17T18:36:58.990Z,15.38
2018-10-17T18:39:33.725Z,15.38
2018-10-17T18:42:10.667Z,15.36
2018-10-17T18:44:43.325Z,15.39
2018-10-17T18:47:17.709Z,15.40
2018-10-17T18:49:50.721Z,15.41
2018-10-17T18:52:25.359Z,15.46
2018-10-17T18:55:01.720Z,15.51
2018-10-17T18:57:38.800Z,15.56
2018-10-17T19:00:20.404Z,15.56
2018-10-17T19:02:53.084Z,15.59
2018-10-17T19:05:31.960Z,15.58
2018-10-17T19:08:08.225Z,15.51
2018-10-17T19:10:45.058Z,15.44
2018-10-17T19:13:22.477Z,15.42
2018-10-17T19:15:58.045Z,15.45
2018-10-17T19:18:33.726Z,15.48
2018-10-17T19:21:09.986Z,15.44
2018-10-17T19:23:45.763Z,15.41
2018-10-17T19:26:20.728Z,15.36
2018-10-17T19:28:55.337Z,15.43
2018-10-17T19:31:28.916Z,15.39
2018-10-17T19:34:03.040Z,15.34
2018-10-17T19:36:35.775Z,15.33
2018-10-17T19:39:11.555Z,15.35
2018-10-17T19:41:47.129Z,15.40
2018-10-17T19:44:20.197Z,15.40
2018-10-17T19:46:54.863Z,15.33
2018-10-17T19:49:28.933Z,15.28
2018-10-17T19:52:03.305Z,15.21
2018-10-17T19:54:39.769Z,15.12
2018-10-17T19:57:14.436Z,15.09
2018-10-17T19:59:51.695Z,15.15
2018-10-17T20:02:26.217Z,15.32
2018-10-17T20:04:59.833Z,15.43
2018-10-17T20:07:37.223Z,15.50
2018-10-17T20:10:10.843Z,15.56
2018-10-17T20:12:44.230Z,15.55
2018-10-17T20:15:20.645Z,15.54
2018-10-17T20:18:06.469Z,15.58
2018-10-17T20:20:45.831Z,15.58
2018-10-17T20:23:26.571Z,15.58
2018-10-17T20:26:03.272Z,15.60
2018-10-17T20:28:40.072Z,15.65
2018-10-17T20:31:20.477Z,15.76
2018-10-17T20:33:55.119Z,15.73
2018-10-17T20:36:33.405Z,15.66
2018-10-17T20:39:14.341Z,15.61
2018-10-17T20:41:48.274Z,15.57
2018-10-17T20:44:22.210Z,15.53
2018-10-17T20:46:56.425Z,15.51
2018-10-17T20:49:30.530Z,15.45
2018-10-17T20:52:05.874Z,15.40
2018-10-17T20:54:41.139Z,15.33
2018-10-17T20:57:15.681Z,15.26
2018-10-17T20:59:50.164Z,15.19
2018-10-17T21:02:22.731Z,15.10
2018-10-17T21:04:57.477Z,15.04
2018-10-17T21:07:31.526Z,14.98
2018-10-17T21:10:05.826Z,14.94
2018-10-17T21:12:38.376Z,14.87
2018-10-17T21:15:13.630Z,14.83
2018-10-17T21:17:49.246Z,14.76
2018-10-17T21:20:23.059Z,14.65
2018-10-17T21:22:57.686Z,14.60
2018-10-17T21:25:36.498Z,14.52
2018-10-17T21:28:09.129Z,14.51
2018-10-17T21:30:49.017Z,14.45
2018-10-17T21:33:22.150Z,14.34
2018-10-17T21:36:04.625Z,14.31
2018-10-17T21:38:38.185Z,14.22
2018-10-17T21:41:11.975Z,14.13
2018-10-17T21:43:46.208Z,14.05
2018-10-17T21:46:22.524Z,14.02
2018-10-17T21:48:55.100Z,13.99
2018-10-17T21:51:31.080Z,13.97
2018-10-17T21:54:07.193Z,14.10
2018-10-17T21:56:44.773Z,14.28
2018-10-17T21:59:18.314Z,14.41
2018-10-17T22:01:51.085Z,14.54
2018-10-17T22:04:24.990Z,14.74
2018-10-17T22:07:03.373Z,14.68
2018-10-17T22:09:36.975Z,14.58
2018-10-17T22:12:11.686Z,14.48
2018-10-17T22:14:45.788Z,14.52
2018-10-17T22:17:27.821Z,14.44
2018-10-17T22:20:00.683Z,14.41
2018-10-17T22:22:33.252Z,14.31
2018-10-17T22:25:08.042Z,14.20
2018-10-17T22:27:41.544Z,14.15
2018-10-17T22:30:17.934Z,14.22
2018-10-17T22:32:51.510Z,14.18
2018-10-17T22:35:25.186Z,14.17
2018-10-17T22:37:58.578Z,14.22
2018-10-17T22:40:31.251Z,14.16
2018-10-17T22:43:04.906Z,14.07
2018-10-17T22:45:38.793Z,13.91
2018-10-17T22:48:11.505Z,13.87
2018-10-17T22:50:45.113Z,13.73
2018-10-17T22:53:21.577Z,13.66
2018-10-17T22:55:55.632Z,13.61
2018-10-17T22:58:29.893Z,13.54
2018-10-17T23:01:04.180Z,13.50
2018-10-17T23:03:40.180Z,13.49
2018-10-17T23:06:13.072Z,13.49
2018-10-17T23:08:46.698Z,13.50
2018-10-17T23:11:23.927Z,13.51
2018-10-17T23:13:58.184Z,13.56
2018-10-17T23:16:31.065Z,13.49
2018-10-17T23:19:05.981Z,13.44
2018-10-17T23:21:39.453Z,13.40
2018-10-17T23:24:12.912Z,13.38
2018-10-17T23:26:46.448Z,13.35
2018-10-17T23:29:19.058Z,13.39
2018-10-17T23:31:52.872Z,13.33
2018-10-17T23:34:27.118Z,13.27
2018-10-17T23:36:59.662Z,13.19
2018-10-17T23:39:32.676Z,13.10
2018-10-17T23:42:07.300Z,13.05
2018-10-17T23:44:41.102Z,13.00
2018-10-17T23:47:15.282Z,12.92
2018-10-17T23:49:49.092Z,12.84
2018-10-17T23:52:22.657Z,12.82
2018-10-17T23:54:57.647Z,12.83
2018-10-17T23:57:31.609Z,12.87
